»·PEaware :: SWA732 KLAS-KBUR

SWA732 :: KLAS-KBUR

FLIGHT INFORMATION

Flight Status: Arrived
Operator:
Southwest Airlines
More flights by this operator :: More flights under this callsign
Pilot: Anonymous 20536 (20536)
Aircraft: BOEING 737-800
(B738)
More flights by this aircraft type
Origin: KLAS McCarran Intl
United States
Destination: KBUR Bob Hope-Burbank
United States
More flights between these airports :: More routes between these airports
Route: BOACH8 WHIGG KREME JANNY5
File this flight plan on PilotEdge
Remarks:
Altitude:
(Current/Filed)
22,000ft
Speed:
(Current/Filed)
380kts
Departed: 26-Sep-18 06:46 PM
Arrived: 26-Sep-18 07:29 PM
Distance/Time
Traveled:
193nm/0:43
Distance/Time
To Go:
Arrived

Flight Plot

Page will automatically refresh every two minutes.

Flight plan parsing failed; only flown route is shown


Map Options




Map Legend


Flown Route
Filed Route
Departure Airport
Arrival Airport
Navaid (VOR, NDB)
Fix

Horizontal Profiles

Position Reports

Time Latitude Longitude Heading Altitude Ground
Speed
26-Sep-18 18:31 36.079885 -115.147049 60 2189ft 0kts
26-Sep-18 18:32 36.079884 -115.147049 60 2189ft 0kts
26-Sep-18 18:33 36.079884 -115.147049 60 2189ft 0kts
26-Sep-18 18:34 36.079884 -115.147049 60 2189ft 0kts
26-Sep-18 18:35 36.079884 -115.147049 60 2189ft 0kts
26-Sep-18 18:36 36.079884 -115.147049 60 2189ft 0kts
26-Sep-18 18:37 36.079884 -115.147049 60 2189ft 0kts
26-Sep-18 18:38 36.079865 -115.147468 120 2189ft 2kts
26-Sep-18 18:39 36.080043 -115.147635 156 2189ft 0kts
26-Sep-18 18:40 36.079400 -115.147486 166 2189ft 10kts
26-Sep-18 18:41 36.078398 -115.145296 95 2188ft 20kts
26-Sep-18 18:42 36.078267 -115.138675 89 2189ft 18kts
26-Sep-18 18:43 36.078274 -115.132641 89 2188ft 16kts
26-Sep-18 18:44 36.078277 -115.126289 90 2189ft 20kts
26-Sep-18 18:45 36.077460 -115.121486 140 2189ft 0kts
26-Sep-18 18:46 36.077460 -115.121486 140 2189ft 0kts
26-Sep-18 18:47 36.076437 -115.122110 269 2189ft 22kts
26-Sep-18 18:48 36.076616 -115.167272 270 3045ft 191kts
26-Sep-18 18:49 36.070513 -115.242708 244 4990ft 259kts
26-Sep-18 18:50 36.009160 -115.291059 188 6388ft 281kts
26-Sep-18 18:51 35.931685 -115.309086 181 8797ft 290kts
26-Sep-18 18:52 35.847798 -115.314865 178 11500ft 328kts
26-Sep-18 18:53 35.754472 -115.303597 174 14518ft 346kts
26-Sep-18 18:54 35.661191 -115.328839 212 17291ft 360kts
26-Sep-18 18:55 35.588651 -115.415337 228 19819ft 374kts
26-Sep-18 18:56 35.517491 -115.510946 229 22049ft 387kts
26-Sep-18 18:57 35.436593 -115.608080 225 22085ft 426kts
26-Sep-18 18:58 35.351669 -115.708047 224 22083ft 455kts
26-Sep-18 18:59 35.258943 -115.817182 224 22065ft 465kts
26-Sep-18 19:00 35.165922 -115.926779 224 22064ft 466kts
26-Sep-18 19:01 35.073556 -116.035695 224 22030ft 445kts
26-Sep-18 19:02 34.992295 -116.131571 224 22063ft 382kts
26-Sep-18 19:03 34.917962 -116.225699 238 22031ft 404kts
26-Sep-18 19:04 34.867703 -116.350068 245 22040ft 437kts
26-Sep-18 19:05 34.814170 -116.487822 245 22030ft 460kts
26-Sep-18 19:06 34.782094 -116.610456 263 22038ft 461kts
26-Sep-18 19:07 34.765062 -116.786123 263 22026ft 460kts
26-Sep-18 19:08 34.752414 -116.914631 263 22027ft 460kts
26-Sep-18 19:09 34.737295 -117.063800 263 21998ft 417kts
26-Sep-18 19:10 34.723940 -117.193951 263 22080ft 378kts
26-Sep-18 19:11 34.710914 -117.319662 263 21427ft 371kts
26-Sep-18 19:12 34.698161 -117.441458 263 19444ft 359kts
26-Sep-18 19:13 34.685775 -117.558293 263 18159ft 344kts
26-Sep-18 19:14 34.673891 -117.669799 262 16623ft 330kts
26-Sep-18 19:15 34.660913 -117.792061 262 15001ft 316kts
26-Sep-18 19:16 34.651919 -117.875982 262 13917ft 308kts
26-Sep-18 19:17 34.641033 -117.975856 262 12684ft 298kts
26-Sep-18 19:18 34.630012 -118.072722 257 11564ft 289kts
26-Sep-18 19:19 34.609000 -118.165428 254 10465ft 282kts
26-Sep-18 19:20 34.588741 -118.256019 254 9370ft 277kts
26-Sep-18 19:21 34.568730 -118.345370 253 8285ft 275kts
26-Sep-18 19:22 34.546382 -118.428938 231 7851ft 248kts
26-Sep-18 19:23 34.493372 -118.477367 211 7262ft 243kts
26-Sep-18 19:24 34.438448 -118.521010 211 6141ft 232kts
26-Sep-18 19:25 34.382787 -118.555725 174 5005ft 221kts
26-Sep-18 19:26 34.335258 -118.521841 142 5035ft 190kts
26-Sep-18 19:27 34.317616 -118.467367 87 4562ft 195kts
26-Sep-18 19:28 34.300153 -118.412500 141 3318ft 182kts
26-Sep-18 19:29 34.264175 -118.379173 151 2135ft 153kts
26-Sep-18 19:30 34.224761 -118.363963 162 1160ft 144kts
26-Sep-18 19:31 34.198930 -118.356762 166 785ft 22kts
26-Sep-18 19:32 34.197238 -118.355613 94 785ft 0kts
26-Sep-18 19:33 34.197185 -118.353615 91 785ft 13kts
26-Sep-18 19:34 34.196891 -118.352852 177 785ft 0kts

Navigation Log

Ident Type
Flight plan parsing failed, navigation log unavailable